Terminal Aerodrome Forecast
Issued by NWS Tulsa, OK

Home | Current Version | Previous Version | Text Only | Print | Product List | Glossary On
Versions: 1 2 3 4 5 6 7 8 9 10 11 12 13 14
000
FTUS44 KTSA 021201 AAA
TAFFSM
TAF AMD
KFSM 021201Z 0212/0312 24010KT P6SM VCTS SCT060CB BKN120
     FM021400 23012KT P6SM BKN060
     FM021800 24013KT P6SM SCT050 BKN120
     FM022100 26012KT P6SM VCTS SCT030 BKN050CB PROB30 0221/0302 4SM
      TSRA BKN030CB
     FM030300 23006KT P6SM VCTS BKN060CB BKN120=

USA.gov is the U.S. government's official web portal to all federal, state and local government web resources and services.